Saturday, July 21, 2018, 9:04 PM EDT
Back to Local

KALB, Albany International Airport

Location: Latham, NY, United States Lat: 42.75
Local Time: 9:04 PM EDT ( 1:04 GMT) Lon: -73.8
Time Zone: US/Eastern Elev: 285 ft

Show me the last for .
Show Decoded

2018-07-21 20:51 METAR KALB 220051Z 12004KT 10SM FEW050 FEW090 FEW210 BKN260 24/12 A3004 RMK AO2
                 SLP172 T02390117 =
2018-07-21 19:51 METAR KALB 212351Z 14005KT 10SM FEW048 FEW090 FEW210 BKN260 25/12 A3004 RMK AO2
                 SLP171 T02500117 10289 20250 53005 =
2018-07-21 18:51 METAR KALB 212251Z 13009KT 10SM FEW220 BKN260 27/11 A3003 RMK AO2 SLP168
                 T02670111 =
2018-07-21 17:51 METAR KALB 212151Z 18009KT 10SM FEW200 BKN270 28/09 A3002 RMK AO2 SLP164
                 T02780094 =
2018-07-21 16:51 METAR KALB 212051Z 14009KT 10SM FEW200 BKN270 28/08 A3002 RMK AO2 SLP166
                 T02830083 56013 =
2018-07-21 15:51 METAR KALB 211951Z 17010G15KT 10SM FEW060 FEW220 BKN270 29/09 A3003 RMK AO2
                 SLP169 T02890094 =
2018-07-21 14:51 METAR KALB 211851Z 13006KT 10SM FEW060 FEW250 SCT270 28/11 A3005 RMK AO2 SLP174
                 T02830106 =
2018-07-21 13:51 METAR KALB 211751Z 14009KT 10SM FEW050 FEW250 SCT270 27/11 A3006 RMK AO2 SLP179
                 T02720106 10283 20211 58019 =
2018-07-21 12:51 METAR KALB 211651Z COR 16005G14KT 10SM FEW045 SCT250 SCT270 27/12 A3009 RMK AO2
                 SLP189 T02670117 =
2018-07-21 11:51 METAR KALB 211551Z 15007KT 10SM SCT042 BKN220 BKN270 25/13 A3011 RMK AO2 SLP195
                 SCT V BKN T02500128 =
2018-07-21 10:51 METAR KALB 211451Z 16008KT 110V190 10SM BKN037 BKN220 BKN270 26/13 A3012 RMK AO2
                 SLP197 T02560133 58002 =
2018-07-21 09:51 METAR KALB 211351Z 17003KT 10SM SCT031 BKN220 BKN270 23/14 A3013 RMK AO2 SLP201
                 T02330144 =
2018-07-21 08:51 METAR KALB 211251Z VRB05KT 10SM FEW032 SCT220 BKN270 22/14 A3013 RMK AO2 SLP200
                 T02220144 =
2018-07-21 07:51 METAR KALB 211151Z VRB03KT 10SM FEW200 BKN250 21/14 A3012 RMK AO2 SLP199
                 T02110139 10211 20178 52002 =
2018-07-21 06:51 METAR KALB 211051Z 00000KT 10SM FEW035 FEW200 BKN250 19/13 A3012 RMK AO2 SLP198
                 T01940133 =
2018-07-21 05:51 METAR KALB 210951Z 13003KT 10SM FEW035 FEW200 BKN250 18/12 A3012 RMK AO2 SLP198
                 T01780122 =
2018-07-21 04:51 METAR KALB 210851Z 13003KT 10SM SCT250 18/12 A3012 RMK AO2 SLP197 T01830122
                 52005 =
2018-07-21 03:51 METAR KALB 210751Z 15003KT 10SM FEW250 19/12 A3012 RMK AO2 SLP196 T01940122 =
2018-07-21 02:51 METAR KALB 210651Z 16006KT 10SM FEW250 21/12 A3011 RMK AO2 SLP193 T02060122 =
2018-07-21 01:51 METAR KALB 210551Z 16006KT 10SM FEW250 21/12 A3010 RMK AO2 SLP193 T02110122
                 10278 20211 53001 =
2018-07-21 00:51 METAR KALB 210451Z 16007KT 10SM FEW250 22/13 A3010 RMK AO2 SLP191 T02220133
                 403110139 =
2018-07-20 23:51 METAR KALB 210351Z 16007KT 10SM FEW250 23/14 A3010 RMK AO2 SLP191 T02280144 =
2018-07-20 22:51 METAR KALB 210251Z 16008KT 10SM FEW250 24/14 A3010 RMK AO2 SLP192 T02440144
                 53009 =
2018-07-20 21:51 METAR KALB 210151Z 16005KT 10SM FEW060 FEW250 26/14 A3010 RMK AO2 SLP190
                 T02560139 =

Support USWX by starting your Amazon purchase here.